Columbus Municipal Airport Columbus US
ICAO: KBAK
IATA: CLU
Category: Medium
Scheduled Services: No

Elevation: 656 ft
TransAlt. 18000 ft.

Airport Communications:
INDIANAPOLIS APP/DEP:134.85
AWOS 3:119.75
CLNC DEL:121.6
CTAF:118.6
GND:121.6
TERRE HAUTE RDO:112
TWR:118.6
UNICOM:122.95

KBAK Zoom In..

If Map Doesn't Load, Click Here

Runways:

(A) RW 05 length 6401 ft width 150 ft
---- / hdg 48

(B) RW 14 length 5001 ft width 100 ft
---- / hdg 138

(C) RW 23 length 6401 ft width 150 ft
ILS 110.70 / hdg 228

(D) RW 32 length 5001 ft width 100 ft
---- / hdg 318

Location; KBAK
Day. 21 / Time. 12.49 Zulu
* Altimeter: 30.00
* Temperature: 24° c. 75.2°f.
* Wind from: 190° Speed 07 kn.
Dewpoint: 18° c.
Visibility: 10 Statute Miles.
Clouds: Scattered 7500 ft.

KBAK 211249Z 19007KT 10SM SCT075 24/18 A3000


Wind From 190°
Speed 07 kn.

 
 
jpsmedia.com for Web Design worldairports.se 2018   terms of use